Time;durP1;ratioP1;P1;durP2;ratioP2;P2;SDS_P1;SDS_P2;PMS_P1;PMS_P2;Temp;Humidity;BMP_temperature;BMP_pressure;BME280_temperature;BME280_humidity;BME280_pressure;Samples;Min_cycle;Max_cycle;Signal;HPM_P1;HPM_P2
2022/03/13 00:02:16;;;;;;;89.25;20.98;;;;;;;;;;5101068;28;20209;-72
2022/03/13 00:04:44;;;;;;;88.63;20.30;;;;;;;;;;5102561;28;20216;-72
2022/03/13 00:07:17;;;;;;;92.75;21.48;;;;;;;;;;5104847;28;20299;-72
2022/03/13 00:09:46;;;;;;;95.10;23.10;;;;;;;;;;5105111;28;20207;-73
2022/03/13 00:12:14;;;;;;;85.30;20.40;;;;;;;;;;5105113;28;20239;-72
2022/03/13 00:14:43;;;;;;;93.10;21.73;;;;;;;;;;5104441;28;20224;-72
2022/03/13 00:17:11;;;;;;;87.30;19.80;;;;;;;;;;5103868;28;20333;-72
2022/03/13 00:19:38;;;;;;;91.88;21.58;;;;;;;;;;5105267;28;20204;-73
2022/03/13 00:22:06;;;;;;;85.03;20.10;;;;;;;;;;5095101;28;20215;-70
2022/03/13 00:24:34;;;;;;;90.32;20.90;;;;;;;;;;5092373;28;20220;-72
2022/03/13 00:27:03;;;;;;;87.20;22.10;;;;;;;;;;5092514;28;20224;-72
2022/03/13 00:29:30;;;;;;;87.80;21.95;;;;;;;;;;5092578;28;20626;-72
2022/03/13 00:31:58;;;;;;;86.97;21.50;;;;;;;;;;5093631;28;20204;-71
2022/03/13 00:34:26;;;;;;;91.70;21.83;;;;;;;;;;5092083;28;20235;-72
2022/03/13 00:36:53;;;;;;;85.60;20.30;;;;;;;;;;5089768;28;20236;-73
2022/03/13 00:39:20;;;;;;;87.85;21.33;;;;;;;;;;5091229;28;20216;-72
2022/03/13 00:41:47;;;;;;;89.05;21.00;;;;;;;;;;5092750;28;20211;-72
2022/03/13 00:44:16;;;;;;;87.13;22.25;;;;;;;;;;5092102;28;20208;-72
2022/03/13 00:46:43;;;;;;;85.43;19.92;;;;;;;;;;5092153;28;20220;-73
2022/03/13 00:49:10;;;;;;;86.10;18.80;;;;;;;;;;5091621;28;20603;-72
2022/03/13 00:51:37;;;;;;;85.97;17.98;;;;;;;;;;5091820;28;20580;-72
2022/03/13 00:54:05;;;;;;;88.30;20.17;;;;;;;;;;5091978;28;20208;-72
2022/03/13 00:56:32;;;;;;;92.53;21.98;;;;;;;;;;5092273;28;20220;-72
2022/03/13 00:59:00;;;;;;;86.43;19.42;;;;;;;;;;5090839;28;20207;-72
2022/03/13 01:01:28;;;;;;;90.70;21.17;;;;;;;;;;5091975;28;20204;-72
2022/03/13 01:03:55;;;;;;;86.30;20.98;;;;;;;;;;5091769;28;20203;-72
2022/03/13 01:06:23;;;;;;;81.32;19.42;;;;;;;;;;5091109;28;20238;-71
2022/03/13 01:08:52;;;;;;;83.50;17.80;;;;;;;;;;5090393;28;20522;-72
2022/03/13 01:11:20;;;;;;;89.78;21.05;;;;;;;;;;5112079;28;20691;-71
2022/03/13 01:13:48;;;;;;;85.30;18.92;;;;;;;;;;5111984;28;20747;-72
2022/03/13 01:16:17;;;;;;;89.93;20.63;;;;;;;;;;5112315;28;20588;-71
2022/03/13 01:18:46;;;;;;;92.55;21.23;;;;;;;;;;5110766;28;20204;-72
2022/03/13 01:21:14;;;;;;;87.55;20.75;;;;;;;;;;5112140;28;20203;-73
2022/03/13 01:23:41;;;;;;;90.70;24.63;;;;;;;;;;5112010;28;20298;-72
2022/03/13 01:26:31;;;;;;;92.60;24.02;;;;;;;;;;5115238;28;20223;-72
2022/03/13 01:28:59;;;;;;;97.72;25.00;;;;;;;;;;5111346;28;20208;-72
2022/03/13 01:31:27;;;;;;;91.15;20.88;;;;;;;;;;5115662;28;20307;-72
2022/03/13 01:33:56;;;;;;;87.88;20.60;;;;;;;;;;5116052;28;20588;-72
2022/03/13 01:36:23;;;;;;;85.63;20.75;;;;;;;;;;5115722;28;20251;-72
2022/03/13 01:38:53;;;;;;;93.30;19.55;;;;;;;;;;5114887;28;20286;-72
2022/03/13 01:41:20;;;;;;;88.30;20.98;;;;;;;;;;5106415;28;20249;-72
2022/03/13 01:43:48;;;;;;;90.47;19.08;;;;;;;;;;5094814;28;20637;-72
2022/03/13 01:46:15;;;;;;;87.18;20.10;;;;;;;;;;5095038;28;20235;-72
2022/03/13 01:48:53;;;;;;;84.35;18.38;;;;;;;;;;5094457;28;20680;-72
2022/03/13 01:51:22;;;;;;;86.50;18.85;;;;;;;;;;5094936;28;20680;-72
2022/03/13 01:53:51;;;;;;;91.35;21.88;;;;;;;;;;5095123;28;20204;-72
2022/03/13 01:56:18;;;;;;;87.13;19.63;;;;;;;;;;5094985;28;20312;-71
2022/03/13 01:58:46;;;;;;;85.78;20.67;;;;;;;;;;5094335;28;20200;-72
2022/03/13 02:01:13;;;;;;;92.47;20.30;;;;;;;;;;5094881;28;20224;-73
2022/03/13 02:03:40;;;;;;;88.05;19.95;;;;;;;;;;5095101;28;20298;-72
2022/03/13 02:06:07;;;;;;;85.05;19.30;;;;;;;;;;5094489;28;20331;-72
2022/03/13 02:08:37;;;;;;;87.60;19.17;;;;;;;;;;5094337;28;20640;-72
2022/03/13 02:11:04;;;;;;;80.25;16.80;;;;;;;;;;5094916;28;20234;-72
2022/03/13 02:13:34;;;;;;;80.15;17.33;;;;;;;;;;5103474;28;20207;-71
2022/03/13 02:16:01;;;;;;;84.65;17.50;;;;;;;;;;5115337;28;20306;-72
2022/03/13 02:18:28;;;;;;;83.40;17.75;;;;;;;;;;5114124;28;20203;-72
2022/03/13 02:20:55;;;;;;;85.20;16.98;;;;;;;;;;5114742;28;20295;-73
2022/03/13 02:23:25;;;;;;;84.43;17.83;;;;;;;;;;5114357;28;20298;-72
2022/03/13 02:25:53;;;;;;;86.07;17.02;;;;;;;;;;5114337;28;20227;-72
2022/03/13 02:28:21;;;;;;;83.57;16.77;;;;;;;;;;5114214;28;20295;-72
2022/03/13 02:30:49;;;;;;;87.50;17.40;;;;;;;;;;5114547;28;20247;-71
2022/03/13 02:33:18;;;;;;;83.45;19.20;;;;;;;;;;5114734;28;20200;-72
2022/03/13 02:35:49;;;;;;;81.88;18.77;;;;;;;;;;5114104;28;20319;-72
2022/03/13 02:38:16;;;;;;;86.25;18.13;;;;;;;;;;5114282;28;20667;-72
2022/03/13 02:40:45;;;;;;;84.88;18.42;;;;;;;;;;5114652;28;20302;-72
2022/03/13 02:43:12;;;;;;;88.88;19.90;;;;;;;;;;5109803;28;20210;-70
2022/03/13 02:45:40;;;;;;;84.88;17.65;;;;;;;;;;5111485;28;20600;-72
2022/03/13 02:48:08;;;;;;;82.55;17.52;;;;;;;;;;5113812;28;20212;-72
2022/03/13 02:50:35;;;;;;;84.50;17.58;;;;;;;;;;5114720;28;20241;-71
2022/03/13 02:53:02;;;;;;;79.70;17.85;;;;;;;;;;5114421;27;20230;-72
2022/03/13 02:55:29;;;;;;;87.30;17.95;;;;;;;;;;5114514;28;20227;-72
2022/03/13 02:57:58;;;;;;;81.00;16.95;;;;;;;;;;5113350;28;20211;-73
2022/03/13 03:00:42;;;;;;;85.78;19.10;;;;;;;;;;5113898;28;20298;-72
2022/03/13 03:03:10;;;;;;;85.38;19.27;;;;;;;;;;5114259;28;20199;-72
2022/03/13 03:05:37;;;;;;;82.82;17.73;;;;;;;;;;5113706;28;20234;-72
2022/03/13 03:08:05;;;;;;;79.05;17.02;;;;;;;;;;5113160;28;20401;-71
2022/03/13 03:10:32;;;;;;;79.07;16.58;;;;;;;;;;5113710;28;20269;-72
2022/03/13 03:13:00;;;;;;;81.85;17.15;;;;;;;;;;5113859;28;20226;-72
2022/03/13 03:15:27;;;;;;;78.90;17.42;;;;;;;;;;5113808;28;20224;-72
2022/03/13 03:17:55;;;;;;;80.57;17.38;;;;;;;;;;5110223;28;20353;-73
2022/03/13 03:20:22;;;;;;;84.47;19.20;;;;;;;;;;5113300;28;20234;-72
2022/03/13 03:22:51;;;;;;;82.15;17.73;;;;;;;;;;5113360;27;20211;-73
2022/03/13 03:25:22;;;;;;;81.25;16.98;;;;;;;;;;5113153;28;20203;-71
2022/03/13 03:27:49;;;;;;;80.85;17.88;;;;;;;;;;5112610;28;20701;-71
2022/03/13 03:30:19;;;;;;;84.22;17.80;;;;;;;;;;5113484;28;20211;-72
2022/03/13 03:32:46;;;;;;;81.40;16.95;;;;;;;;;;5113361;28;20210;-73
2022/03/13 03:35:13;;;;;;;80.32;17.80;;;;;;;;;;5113221;28;20208;-72
2022/03/13 03:37:40;;;;;;;79.10;15.65;;;;;;;;;;5112989;28;20203;-71
2022/03/13 03:40:08;;;;;;;81.78;16.67;;;;;;;;;;5113184;28;20203;-72
2022/03/13 03:42:36;;;;;;;78.65;16.80;;;;;;;;;;5113165;28;20206;-71
2022/03/13 03:45:03;;;;;;;83.68;16.65;;;;;;;;;;5113193;28;20219;-72
2022/03/13 03:47:32;;;;;;;78.80;16.95;;;;;;;;;;5111918;28;20234;-72
2022/03/13 03:49:59;;;;;;;82.60;15.60;;;;;;;;;;5109650;28;20287;-74
2022/03/13 03:52:26;;;;;;;79.13;14.93;;;;;;;;;;5113133;28;20203;-72
2022/03/13 03:54:53;;;;;;;74.82;13.95;;;;;;;;;;5113228;28;20211;-71
2022/03/13 03:57:20;;;;;;;81.75;14.57;;;;;;;;;;5112282;28;20229;-72
2022/03/13 03:59:47;;;;;;;80.82;16.15;;;;;;;;;;5112959;28;20218;-71
2022/03/13 04:02:14;;;;;;;81.25;16.25;;;;;;;;;;5112744;28;20203;-71
2022/03/13 04:04:43;;;;;;;77.68;15.85;;;;;;;;;;5112775;28;20211;-72
2022/03/13 04:07:10;;;;;;;78.30;13.80;;;;;;;;;;5111732;28;20262;-71
2022/03/13 04:09:37;;;;;;;80.65;16.10;;;;;;;;;;5112777;28;20199;-71
2022/03/13 04:12:08;;;;;;;77.68;14.35;;;;;;;;;;5112714;28;20203;-72
2022/03/13 04:14:35;;;;;;;85.13;17.23;;;;;;;;;;5112738;28;20643;-71
2022/03/13 04:17:02;;;;;;;79.18;15.38;;;;;;;;;;5112577;28;20310;-71
2022/03/13 04:19:29;;;;;;;77.07;15.02;;;;;;;;;;5111271;28;20298;-71
2022/03/13 04:21:58;;;;;;;78.80;15.77;;;;;;;;;;5109600;27;20656;-72
2022/03/13 04:24:25;;;;;;;71.97;12.50;;;;;;;;;;5112210;28;20208;-71
2022/03/13 04:26:53;;;;;;;78.55;15.90;;;;;;;;;;5111852;28;20231;-72
2022/03/13 04:29:23;;;;;;;72.80;13.02;;;;;;;;;;5111754;28;20207;-72
2022/03/13 04:31:52;;;;;;;77.35;13.07;;;;;;;;;;5112844;28;20219;-72
2022/03/13 04:34:19;;;;;;;80.65;15.02;;;;;;;;;;5112764;28;20200;-71
2022/03/13 04:36:47;;;;;;;77.05;13.98;;;;;;;;;;5113327;28;20306;-71
2022/03/13 04:39:16;;;;;;;81.82;14.48;;;;;;;;;;5111650;28;20214;-71
2022/03/13 04:41:43;;;;;;;75.00;14.30;;;;;;;;;;5112271;28;20215;-72
2022/03/13 04:44:14;;;;;;;73.25;12.80;;;;;;;;;;5111935;28;20203;-72
2022/03/13 04:46:41;;;;;;;76.15;13.45;;;;;;;;;;5111854;28;20235;-71
2022/03/13 04:49:08;;;;;;;77.40;14.23;;;;;;;;;;5111399;28;20671;-72
2022/03/13 04:51:36;;;;;;;73.53;12.82;;;;;;;;;;5111644;28;20203;-71
2022/03/13 04:54:04;;;;;;;75.03;13.73;;;;;;;;;;5111031;28;20294;-71
2022/03/13 04:56:33;;;;;;;79.55;13.85;;;;;;;;;;5112150;28;20221;-72
2022/03/13 04:59:00;;;;;;;70.53;12.57;;;;;;;;;;5111217;28;20215;-72
2022/03/13 05:01:27;;;;;;;79.38;14.65;;;;;;;;;;5116625;28;20298;-72
2022/03/13 05:03:55;;;;;;;76.22;15.05;;;;;;;;;;5116299;28;20203;-72
2022/03/13 05:06:22;;;;;;;78.85;13.90;;;;;;;;;;5116292;28;20227;-71
2022/03/13 05:08:50;;;;;;;74.85;14.10;;;;;;;;;;5115733;28;20199;-71
2022/03/13 05:11:17;;;;;;;71.65;12.00;;;;;;;;;;5115839;28;20572;-72
2022/03/13 05:13:46;;;;;;;72.45;11.95;;;;;;;;;;5116491;28;20231;-71
2022/03/13 05:16:13;;;;;;;73.40;12.95;;;;;;;;;;5116285;28;20602;-72
2022/03/13 05:18:40;;;;;;;75.50;13.23;;;;;;;;;;5115544;28;20256;-71
2022/03/13 05:21:07;;;;;;;76.35;12.30;;;;;;;;;;5116090;28;20229;-72
2022/03/13 05:23:34;;;;;;;69.75;12.13;;;;;;;;;;5116062;27;20214;-71
2022/03/13 05:26:01;;;;;;;78.95;14.35;;;;;;;;;;5115903;28;20224;-72
2022/03/13 05:28:29;;;;;;;74.20;12.90;;;;;;;;;;5115222;28;20252;-72
2022/03/13 05:30:57;;;;;;;74.30;12.32;;;;;;;;;;5115917;28;20302;-71
2022/03/13 05:33:24;;;;;;;73.03;12.55;;;;;;;;;;5115749;28;20270;-71
2022/03/13 05:35:51;;;;;;;72.55;12.65;;;;;;;;;;5115698;28;20310;-72
2022/03/13 05:38:19;;;;;;;72.10;12.90;;;;;;;;;;5115021;28;20204;-72
2022/03/13 05:40:46;;;;;;;78.25;14.15;;;;;;;;;;5115903;28;20290;-72
2022/03/13 05:43:14;;;;;;;72.95;12.38;;;;;;;;;;5115695;28;20647;-72
2022/03/13 05:45:42;;;;;;;79.53;13.60;;;;;;;;;;5115696;28;20600;-72
2022/03/13 05:48:13;;;;;;;74.68;11.73;;;;;;;;;;5114863;28;20635;-72
2022/03/13 05:50:40;;;;;;;75.43;11.70;;;;;;;;;;5115520;28;20203;-72
2022/03/13 05:53:07;;;;;;;76.00;11.82;;;;;;;;;;5115571;28;20243;-72
2022/03/13 05:55:34;;;;;;;71.75;12.18;;;;;;;;;;5115297;28;20750;-71
2022/03/13 05:58:02;;;;;;;72.70;13.13;;;;;;;;;;5114822;28;20195;-72
2022/03/13 06:00:31;;;;;;;75.40;12.18;;;;;;;;;;5115465;28;20210;-72
2022/03/13 06:02:58;;;;;;;70.50;11.60;;;;;;;;;;5115197;28;20208;-71
2022/03/13 06:05:27;;;;;;;72.65;11.30;;;;;;;;;;5115042;28;20642;-72
2022/03/13 06:07:55;;;;;;;78.63;13.75;;;;;;;;;;5114657;28;20231;-72
2022/03/13 06:10:22;;;;;;;74.82;11.77;;;;;;;;;;5115108;28;20562;-71
2022/03/13 06:12:49;;;;;;;74.57;12.68;;;;;;;;;;5114275;28;20598;-73
2022/03/13 06:15:17;;;;;;;69.50;11.50;;;;;;;;;;5114912;28;20210;-72
2022/03/13 06:17:45;;;;;;;76.53;13.32;;;;;;;;;;5114514;28;20208;-72
2022/03/13 06:20:13;;;;;;;72.88;12.00;;;;;;;;;;5114877;27;20203;-72
2022/03/13 06:22:43;;;;;;;74.10;12.18;;;;;;;;;;5115022;28;20307;-72
2022/03/13 06:25:11;;;;;;;77.32;12.65;;;;;;;;;;5114855;28;20625;-72
2022/03/13 06:27:38;;;;;;;75.00;11.77;;;;;;;;;;5114009;28;20224;-72
2022/03/13 06:30:12;;;;;;;70.88;11.55;;;;;;;;;;5114912;28;20215;-72
2022/03/13 06:32:39;;;;;;;73.45;11.85;;;;;;;;;;5115216;28;20210;-72
2022/03/13 06:35:06;;;;;;;71.35;11.50;;;;;;;;;;5115317;28;20204;-72
2022/03/13 06:37:34;;;;;;;71.25;12.13;;;;;;;;;;5113866;28;20202;-72
2022/03/13 06:40:02;;;;;;;70.28;11.75;;;;;;;;;;5114742;28;20273;-71
2022/03/13 06:42:29;;;;;;;71.03;10.98;;;;;;;;;;5114479;28;20728;-71
2022/03/13 06:44:56;;;;;;;70.65;11.15;;;;;;;;;;5114560;28;20208;-71
2022/03/13 06:47:24;;;;;;;73.50;11.93;;;;;;;;;;5113764;28;20318;-72
2022/03/13 06:49:51;;;;;;;71.13;11.50;;;;;;;;;;5114407;28;20238;-71
2022/03/13 06:52:18;;;;;;;71.30;9.90;;;;;;;;;;5114256;28;20312;-71
2022/03/13 06:54:46;;;;;;;76.93;12.15;;;;;;;;;;5114350;28;20583;-71
2022/03/13 06:57:15;;;;;;;70.70;11.00;;;;;;;;;;5113495;28;20216;-71
2022/03/13 06:59:42;;;;;;;70.57;10.80;;;;;;;;;;5114302;28;20588;-71
2022/03/13 07:02:10;;;;;;;69.53;10.55;;;;;;;;;;5114230;28;20209;-71
2022/03/13 07:04:38;;;;;;;70.15;10.65;;;;;;;;;;5114050;28;20200;-71
2022/03/13 07:07:05;;;;;;;70.65;11.63;;;;;;;;;;5113939;28;20234;-71
2022/03/13 07:09:33;;;;;;;68.57;10.43;;;;;;;;;;5113716;28;20213;-71
2022/03/13 07:12:00;;;;;;;71.75;11.05;;;;;;;;;;5114133;28;20295;-71
2022/03/13 07:14:30;;;;;;;71.50;10.95;;;;;;;;;;5113964;28;20634;-71
2022/03/13 07:16:57;;;;;;;72.03;10.77;;;;;;;;;;5113854;28;20231;-71
2022/03/13 07:19:24;;;;;;;68.88;10.15;;;;;;;;;;5113247;28;20428;-71
2022/03/13 07:21:52;;;;;;;69.20;9.98;;;;;;;;;;5113974;28;20223;-72
2022/03/13 07:24:19;;;;;;;71.15;10.65;;;;;;;;;;5113539;28;20245;-71
2022/03/13 07:26:46;;;;;;;65.85;9.27;;;;;;;;;;5113486;28;20220;-71
2022/03/13 07:29:13;;;;;;;67.55;10.07;;;;;;;;;;5112914;28;20203;-71
2022/03/13 07:31:42;;;;;;;68.03;10.20;;;;;;;;;;5113800;28;20324;-72
2022/03/13 07:34:09;;;;;;;79.57;10.73;;;;;;;;;;5113334;27;20203;-72
2022/03/13 07:36:39;;;;;;;66.97;8.93;;;;;;;;;;5113866;28;20276;-71
2022/03/13 07:39:06;;;;;;;69.32;9.73;;;;;;;;;;5112806;28;20206;-71
2022/03/13 07:41:34;;;;;;;67.30;8.70;;;;;;;;;;5113566;28;20204;-72
2022/03/13 07:44:03;;;;;;;68.40;9.55;;;;;;;;;;5113045;28;20203;-71
2022/03/13 07:46:31;;;;;;;65.85;8.27;;;;;;;;;;5113372;28;20256;-73
2022/03/13 07:48:59;;;;;;;70.00;9.73;;;;;;;;;;5112461;28;20290;-71
2022/03/13 07:51:26;;;;;;;66.35;8.93;;;;;;;;;;5113187;28;20697;-72
2022/03/13 07:53:53;;;;;;;71.88;8.73;;;;;;;;;;5113023;28;20207;-71
2022/03/13 07:56:21;;;;;;;67.43;9.10;;;;;;;;;;5112964;28;20310;-72
2022/03/13 07:58:48;;;;;;;77.53;12.95;;;;;;;;;;5112366;28;20199;-71
2022/03/13 08:01:15;;;;;;;71.63;10.07;;;;;;;;;;5113001;28;20631;-71
2022/03/13 08:03:44;;;;;;;68.03;8.45;;;;;;;;;;5113004;28;20719;-72
2022/03/13 08:06:13;;;;;;;66.10;7.75;;;;;;;;;;5112757;28;20588;-71
2022/03/13 08:08:40;;;;;;;66.38;8.15;;;;;;;;;;5111965;28;20707;-72
2022/03/13 08:11:07;;;;;;;69.97;9.50;;;;;;;;;;5113051;28;20638;-72
2022/03/13 08:13:34;;;;;;;69.47;9.50;;;;;;;;;;5112710;28;20695;-72
2022/03/13 08:16:01;;;;;;;69.22;8.95;;;;;;;;;;5112693;28;20315;-72
2022/03/13 08:18:29;;;;;;;67.22;9.68;;;;;;;;;;5112146;28;20196;-72
2022/03/13 08:20:56;;;;;;;67.05;9.13;;;;;;;;;;5112617;28;20554;-72
2022/03/13 08:23:25;;;;;;;67.05;8.73;;;;;;;;;;5112881;28;20297;-72
2022/03/13 08:25:52;;;;;;;66.70;8.75;;;;;;;;;;5112521;28;20251;-72
2022/03/13 08:28:19;;;;;;;66.20;8.30;;;;;;;;;;5111838;28;20235;-72
2022/03/13 08:30:46;;;;;;;69.30;8.80;;;;;;;;;;5113338;28;20706;-72
2022/03/13 08:33:14;;;;;;;68.25;9.02;;;;;;;;;;5112796;28;20235;-72
2022/03/13 08:35:41;;;;;;;69.18;9.43;;;;;;;;;;5111939;28;20227;-72
2022/03/13 08:38:08;;;;;;;67.93;9.80;;;;;;;;;;5112067;28;20204;-72
2022/03/13 08:40:36;;;;;;;67.38;8.52;;;;;;;;;;5112408;28;20213;-72
2022/03/13 08:43:05;;;;;;;70.75;9.50;;;;;;;;;;5112464;28;20203;-72
2022/03/13 08:45:32;;;;;;;68.18;10.00;;;;;;;;;;5112413;28;20780;-72
2022/03/13 08:47:59;;;;;;;72.50;8.88;;;;;;;;;;5111486;28;20231;-72
2022/03/13 08:50:27;;;;;;;68.22;9.73;;;;;;;;;;5112486;28;20203;-72
2022/03/13 08:52:55;;;;;;;66.78;9.50;;;;;;;;;;5112566;28;20200;-72
2022/03/13 08:55:22;;;;;;;71.30;10.05;;;;;;;;;;5112199;28;20782;-72
2022/03/13 08:57:51;;;;;;;66.65;9.60;;;;;;;;;;5111577;28;20628;-72
2022/03/13 09:00:21;;;;;;;68.80;9.23;;;;;;;;;;5112256;28;20291;-71
2022/03/13 09:02:50;;;;;;;72.00;9.00;;;;;;;;;;5112547;28;20211;-72
2022/03/13 09:05:17;;;;;;;67.28;9.35;;;;;;;;;;5112390;28;20215;-72
2022/03/13 09:07:44;;;;;;;66.37;10.53;;;;;;;;;;5111420;28;20228;-71
2022/03/13 09:10:12;;;;;;;70.95;10.40;;;;;;;;;;5112160;28;20534;-73
2022/03/13 09:12:40;;;;;;;65.37;8.87;;;;;;;;;;5112169;28;20208;-73
2022/03/13 09:15:09;;;;;;;70.50;10.30;;;;;;;;;;5112173;28;20448;-72
2022/03/13 09:17:36;;;;;;;70.30;10.30;;;;;;;;;;5111576;28;20533;-73
2022/03/13 09:20:04;;;;;;;68.30;11.13;;;;;;;;;;5112205;28;20447;-72
2022/03/13 09:22:32;;;;;;;70.27;10.77;;;;;;;;;;5112189;28;20538;-72
2022/03/13 09:24:59;;;;;;;72.83;12.30;;;;;;;;;;5112475;28;20455;-73
2022/03/13 09:27:26;;;;;;;71.37;11.10;;;;;;;;;;5110891;28;20492;-72
2022/03/13 09:29:54;;;;;;;71.37;11.27;;;;;;;;;;5111867;28;20468;-72
2022/03/13 09:32:23;;;;;;;73.27;11.90;;;;;;;;;;5112131;28;20501;-70
2022/03/13 09:34:50;;;;;;;72.60;11.20;;;;;;;;;;5112038;28;20451;-70
2022/03/13 09:37:17;;;;;;;72.60;11.00;;;;;;;;;;5111409;28;20558;-70
2022/03/13 09:39:44;;;;;;;67.60;10.50;;;;;;;;;;5111945;28;20723;-71
2022/03/13 09:42:12;;;;;;;74.60;11.30;;;;;;;;;;5111655;28;20458;-70
2022/03/13 09:44:39;;;;;;;73.13;12.60;;;;;;;;;;5111894;28;20448;-71
2022/03/13 09:47:06;;;;;;;76.03;12.07;;;;;;;;;;5114745;28;20463;-72
2022/03/13 09:49:35;;;;;;;74.23;13.00;;;;;;;;;;5115472;28;20452;-72
2022/03/13 09:52:02;;;;;;;77.73;12.00;;;;;;;;;;5115532;28;20963;-72
2022/03/13 09:54:29;;;;;;;70.67;12.17;;;;;;;;;;5115369;27;20527;-72
2022/03/13 09:56:56;;;;;;;69.80;11.07;;;;;;;;;;5115504;27;20469;-72
2022/03/13 09:59:24;;;;;;;72.40;12.07;;;;;;;;;;5114973;28;20842;-73
2022/03/13 10:01:51;;;;;;;72.87;11.67;;;;;;;;;;5115499;28;20859;-72
2022/03/13 10:04:18;;;;;;;70.63;11.20;;;;;;;;;;5115213;28;20456;-73
2022/03/13 10:07:00;;;;;;;68.93;11.90;;;;;;;;;;5115276;28;20470;-73
2022/03/13 10:09:29;;;;;;;70.90;12.27;;;;;;;;;;5114378;28;20607;-72
2022/03/13 10:12:04;;;;;;;72.03;13.90;;;;;;;;;;5115364;28;20945;-71
2022/03/13 10:14:31;;;;;;;71.27;12.67;;;;;;;;;;5115262;28;20447;-71
2022/03/13 10:16:58;;;;;;;68.87;12.30;;;;;;;;;;5115162;27;20478;-72
2022/03/13 10:19:28;;;;;;;74.60;13.53;;;;;;;;;;5114631;27;20438;-72
2022/03/13 10:22:05;;;;;;;69.27;12.50;;;;;;;;;;5114973;28;20450;-72
2022/03/13 10:24:39;;;;;;;70.90;13.30;;;;;;;;;;5115431;28;20873;-72
2022/03/13 10:27:11;;;;;;;72.23;14.63;;;;;;;;;;5115247;28;20469;-71
2022/03/13 10:29:38;;;;;;;71.87;12.73;;;;;;;;;;5116289;28;20938;-72
2022/03/13 10:32:06;;;;;;;74.83;13.43;;;;;;;;;;5114667;27;20938;-72
2022/03/13 10:34:33;;;;;;;73.77;14.37;;;;;;;;;;5114978;28;20486;-72
2022/03/13 10:37:01;;;;;;;72.57;14.23;;;;;;;;;;5114783;28;20492;-72
2022/03/13 10:39:28;;;;;;;72.10;13.20;;;;;;;;;;5113906;28;20530;-72
2022/03/13 10:42:02;;;;;;;72.00;14.20;;;;;;;;;;5114694;28;20536;-72
2022/03/13 10:44:34;;;;;;;72.00;13.40;;;;;;;;;;5114469;28;20461;-72
2022/03/13 10:47:03;;;;;;;72.90;14.13;;;;;;;;;;5114413;27;20988;-72
2022/03/13 10:49:40;;;;;;;70.30;14.03;;;;;;;;;;5114138;28;20446;-72
2022/03/13 10:52:26;;;;;;;73.30;14.40;;;;;;;;;;5114685;28;20451;-72
2022/03/13 10:54:54;;;;;;;72.57;14.30;;;;;;;;;;5114315;28;20439;-72
2022/03/13 10:57:22;;;;;;;76.63;14.13;;;;;;;;;;5112911;28;20466;-72
2022/03/13 11:00:04;;;;;;;72.73;15.77;;;;;;;;;;5114371;28;20882;-72
2022/03/13 11:02:32;;;;;;;83.53;15.00;;;;;;;;;;5114215;28;20445;-72
2022/03/13 11:05:00;;;;;;;73.80;15.40;;;;;;;;;;5114350;28;20443;-72
2022/03/13 11:07:27;;;;;;;72.30;14.70;;;;;;;;;;5113318;28;20881;-72
2022/03/13 11:09:55;;;;;;;74.90;16.10;;;;;;;;;;5114555;28;20528;-72
2022/03/13 11:12:24;;;;;;;73.00;16.20;;;;;;;;;;5114189;28;20441;-72
2022/03/13 11:14:52;;;;;;;74.27;16.60;;;;;;;;;;5114055;28;20492;-73
2022/03/13 11:17:21;;;;;;;72.00;15.70;;;;;;;;;;5113191;28;20469;-72
2022/03/13 11:19:49;;;;;;;72.70;16.00;;;;;;;;;;5113682;28;20491;-72
2022/03/13 11:22:17;;;;;;;72.43;15.70;;;;;;;;;;5114139;28;20481;-72
2022/03/13 11:24:45;;;;;;;71.97;16.13;;;;;;;;;;5113936;28;20442;-72
2022/03/13 11:27:13;;;;;;;73.10;17.07;;;;;;;;;;5113087;28;20573;-71
2022/03/13 11:29:45;;;;;;;72.90;17.10;;;;;;;;;;5113568;28;20463;-71
2022/03/13 11:32:29;;;;;;;75.57;18.20;;;;;;;;;;5114216;28;20524;-71
2022/03/13 11:35:15;;;;;;;74.80;15.87;;;;;;;;;;5113772;28;20449;-71
2022/03/13 11:37:43;;;;;;;80.00;17.40;;;;;;;;;;5112841;28;20453;-71
2022/03/13 11:40:11;;;;;;;75.07;16.97;;;;;;;;;;5113680;28;20472;-71
2022/03/13 11:42:47;;;;;;;75.60;17.93;;;;;;;;;;5113374;28;20847;-72
2022/03/13 11:45:34;;;;;;;73.77;16.60;;;;;;;;;;5113608;28;20548;-71
2022/03/13 11:48:20;;;;;;;73.90;16.93;;;;;;;;;;5112899;28;20528;-72
2022/03/13 11:50:47;;;;;;;75.03;17.77;;;;;;;;;;5113308;28;20456;-72
2022/03/13 11:53:18;;;;;;;72.10;17.27;;;;;;;;;;5112974;28;20502;-72
2022/03/13 11:56:00;;;;;;;71.47;16.37;;;;;;;;;;5113501;28;20825;-72
2022/03/13 11:58:40;;;;;;;75.60;18.17;;;;;;;;;;5110226;28;20482;-72
2022/03/13 12:01:09;;;;;;;77.80;18.47;;;;;;;;;;5113127;28;20448;-72
2022/03/13 12:03:36;;;;;;;73.10;17.33;;;;;;;;;;5113050;28;20473;-72
2022/03/13 12:06:05;;;;;;;74.20;16.70;;;;;;;;;;5112831;28;20500;-72
2022/03/13 12:08:50;;;;;;;74.13;16.20;;;;;;;;;;5111802;28;20452;-72
2022/03/13 12:11:38;;;;;;;72.23;17.07;;;;;;;;;;5112727;28;21045;-72
2022/03/13 12:14:07;;;;;;;74.03;18.10;;;;;;;;;;5112557;28;20445;-72
2022/03/13 12:16:35;;;;;;;72.33;17.43;;;;;;;;;;5113176;28;20473;-72
2022/03/13 12:19:02;;;;;;;73.67;18.57;;;;;;;;;;5112122;28;20568;-73
2022/03/13 12:21:30;;;;;;;70.90;16.17;;;;;;;;;;5113130;28;20445;-73
2022/03/13 12:23:58;;;;;;;77.20;16.67;;;;;;;;;;5112612;28;20957;-73
2022/03/13 12:26:30;;;;;;;75.07;16.63;;;;;;;;;;5113756;28;21011;-73
2022/03/13 12:28:58;;;;;;;72.20;16.53;;;;;;;;;;5112332;28;20464;-73
2022/03/13 12:31:25;;;;;;;71.87;16.73;;;;;;;;;;5112697;28;20453;-74
2022/03/13 12:33:54;;;;;;;71.37;16.00;;;;;;;;;;5112323;28;20532;-74
2022/03/13 12:36:23;;;;;;;74.60;18.67;;;;;;;;;;5112552;28;20514;-74
2022/03/13 12:38:51;;;;;;;73.37;17.23;;;;;;;;;;5111758;28;20477;-74
2022/03/13 12:41:18;;;;;;;76.00;16.93;;;;;;;;;;5112100;28;20454;-74
2022/03/13 12:43:47;;;;;;;73.80;18.17;;;;;;;;;;5112241;28;20507;-75
2022/03/13 12:46:15;;;;;;;72.67;17.00;;;;;;;;;;5112578;28;20469;-72
2022/03/13 12:48:50;;;;;;;74.67;18.10;;;;;;;;;;5111731;28;20508;-74
2022/03/13 12:51:35;;;;;;;72.50;16.70;;;;;;;;;;5112842;28;20456;-74
2022/03/13 12:54:04;;;;;;;75.10;17.80;;;;;;;;;;5112443;28;20452;-74
2022/03/13 12:56:33;;;;;;;78.90;18.70;;;;;;;;;;5112385;28;20463;-74
2022/03/13 12:59:00;;;;;;;75.03;17.53;;;;;;;;;;5111806;28;20534;-74
2022/03/13 13:01:27;;;;;;;75.90;16.27;;;;;;;;;;5112349;28;20449;-74
2022/03/13 13:03:55;;;;;;;73.87;17.80;;;;;;;;;;5112055;28;20456;-74
2022/03/13 13:06:31;;;;;;;76.20;16.47;;;;;;;;;;5112055;28;20473;-74
2022/03/13 13:08:59;;;;;;;71.10;15.40;;;;;;;;;;5111707;28;20453;-74
2022/03/13 13:11:31;;;;;;;76.83;17.87;;;;;;;;;;5112239;28;20455;-74
2022/03/13 13:13:59;;;;;;;73.30;15.67;;;;;;;;;;5112058;28;20471;-74
2022/03/13 13:16:29;;;;;;;71.50;16.63;;;;;;;;;;5111988;28;20868;-74
2022/03/13 13:18:56;;;;;;;77.00;18.10;;;;;;;;;;5111245;28;20490;-74
2022/03/13 13:21:40;;;;;;;74.13;15.53;;;;;;;;;;5114583;28;20823;-73
2022/03/13 13:24:21;;;;;;;73.80;17.30;;;;;;;;;;5114394;28;20460;-72
2022/03/13 13:26:49;;;;;;;75.13;16.87;;;;;;;;;;5116054;28;20548;-72
2022/03/13 13:29:30;;;;;;;73.00;16.63;;;;;;;;;;5115247;28;20511;-73
2022/03/13 13:32:12;;;;;;;74.07;17.20;;;;;;;;;;5116083;28;20520;-71
2022/03/13 13:34:41;;;;;;;75.17;17.37;;;;;;;;;;5115780;28;20552;-73
2022/03/13 13:37:09;;;;;;;74.80;16.13;;;;;;;;;;5115391;28;20833;-72
2022/03/13 13:39:36;;;;;;;71.97;16.30;;;;;;;;;;5115634;28;20476;-71
2022/03/13 13:42:05;;;;;;;73.27;18.33;;;;;;;;;;5116052;28;20445;-71
2022/03/13 13:44:32;;;;;;;72.57;17.10;;;;;;;;;;5115849;28;20446;-72
2022/03/13 13:47:05;;;;;;;72.67;16.33;;;;;;;;;;5115632;28;20469;-71
2022/03/13 13:49:33;;;;;;;73.20;16.00;;;;;;;;;;5115182;28;20477;-72
2022/03/13 13:52:10;;;;;;;74.60;16.83;;;;;;;;;;5115458;28;20453;-71
2022/03/13 13:54:38;;;;;;;71.67;15.90;;;;;;;;;;5115652;28;20448;-71
2022/03/13 13:57:06;;;;;;;76.90;16.43;;;;;;;;;;5115275;28;20472;-70
2022/03/13 13:59:42;;;;;;;75.97;18.20;;;;;;;;;;5115011;28;21031;-69
2022/03/13 14:02:13;;;;;;;73.80;15.80;;;;;;;;;;5115332;28;20445;-70
2022/03/13 14:04:41;;;;;;;73.20;14.83;;;;;;;;;;5115102;28;20893;-70
2022/03/13 14:07:09;;;;;;;74.63;15.70;;;;;;;;;;5114914;28;20465;-71
2022/03/13 14:09:36;;;;;;;73.20;14.17;;;;;;;;;;5115051;28;20451;-71
2022/03/13 14:12:04;;;;;;;71.20;15.07;;;;;;;;;;5115173;28;20441;-70
2022/03/13 14:14:32;;;;;;;72.40;16.43;;;;;;;;;;5115152;28;20441;-71
2022/03/13 14:17:00;;;;;;;72.60;15.50;;;;;;;;;;5114942;28;20470;-69
2022/03/13 14:19:28;;;;;;;77.40;13.70;;;;;;;;;;5114414;28;20537;-73
2022/03/13 14:21:56;;;;;;;74.90;13.80;;;;;;;;;;5115119;28;20553;-73
2022/03/13 14:24:23;;;;;;;70.80;13.70;;;;;;;;;;5115329;28;20483;-73
2022/03/13 14:26:50;;;;;;;76.73;16.13;;;;;;;;;;5114801;28;21007;-73
2022/03/13 14:29:18;;;;;;;71.97;14.60;;;;;;;;;;5113986;28;20445;-73